sensor_id;sensor_type;location;lat;lon;timestamp;pressure;altitude;pressure_sealevel;temperature;humidity
31239;BME280;17871;31.584;74.450;2023-02-11T00:01:46;98534.00;;;14.75;55.12
31239;BME280;17871;31.584;74.450;2023-02-11T00:04:15;98539.97;;;14.81;54.91
31239;BME280;17871;31.584;74.450;2023-02-11T00:06:45;98538.22;;;14.83;54.84
31239;BME280;17871;31.584;74.450;2023-02-11T00:09:14;98543.44;;;14.74;54.45
31239;BME280;17871;31.584;74.450;2023-02-11T00:11:43;98541.69;;;14.76;54.01
31239;BME280;17871;31.584;74.450;2023-02-11T00:14:13;98548.53;;;14.82;54.03
31239;BME280;17871;31.584;74.450;2023-02-11T00:16:42;98548.50;;;14.83;54.57
31239;BME280;17871;31.584;74.450;2023-02-11T00:19:11;98551.13;;;14.76;54.71
31239;BME280;17871;31.584;74.450;2023-02-11T00:21:41;98555.38;;;14.84;54.46
31239;BME280;17871;31.584;74.450;2023-02-11T00:24:10;98571.69;;;14.79;53.72
31239;BME280;17871;31.584;74.450;2023-02-11T00:26:39;98584.53;;;14.83;53.67
31239;BME280;17871;31.584;74.450;2023-02-11T00:29:09;98579.38;;;14.83;53.23
31239;BME280;17871;31.584;74.450;2023-02-11T00:31:40;98591.34;;;14.90;52.92
31239;BME280;17871;31.584;74.450;2023-02-11T00:34:10;98608.53;;;14.82;52.26
31239;BME280;17871;31.584;74.450;2023-02-11T00:36:39;98607.63;;;14.91;52.59
31239;BME280;17871;31.584;74.450;2023-02-11T00:39:09;98611.06;;;14.90;52.13
31239;BME280;17871;31.584;74.450;2023-02-11T00:41:38;98608.44;;;14.96;51.57
31239;BME280;17871;31.584;74.450;2023-02-11T00:44:07;98618.69;;;15.02;51.51
31239;BME280;17871;31.584;74.450;2023-02-11T00:46:37;98621.25;;;15.02;51.73
31239;BME280;17871;31.584;74.450;2023-02-11T00:49:10;98624.66;;;15.10;51.37
31239;BME280;17871;31.584;74.450;2023-02-11T00:51:40;98616.91;;;15.12;51.33
31239;BME280;17871;31.584;74.450;2023-02-11T00:54:10;98625.50;;;15.09;51.13
31239;BME280;17871;31.584;74.450;2023-02-11T00:56:39;98621.25;;;15.05;51.20
31239;BME280;17871;31.584;74.450;2023-02-11T00:59:08;98632.38;;;15.08;50.87
31239;BME280;17871;31.584;74.450;2023-02-11T01:01:38;98644.44;;;15.03;50.60
31239;BME280;17871;31.584;74.450;2023-02-11T01:04:08;98630.72;;;15.04;50.85
31239;BME280;17871;31.584;74.450;2023-02-11T01:06:38;98632.38;;;15.08;50.74
31239;BME280;17871;31.584;74.450;2023-02-11T01:09:08;98638.44;;;15.00;50.91
31239;BME280;17871;31.584;74.450;2023-02-11T01:11:39;98640.16;;;15.01;51.27
31239;BME280;17871;31.584;74.450;2023-02-11T01:14:11;98643.63;;;14.97;50.81
31239;BME280;17871;31.584;74.450;2023-02-11T01:16:42;98642.75;;;14.98;51.23
31239;BME280;17871;31.584;74.450;2023-02-11T01:19:12;98656.56;;;14.85;51.50
31239;BME280;17871;31.584;74.450;2023-02-11T01:21:45;98665.13;;;14.88;51.78
31239;BME280;17871;31.584;74.450;2023-02-11T01:24:15;98665.16;;;14.81;51.60
31239;BME280;17871;31.584;74.450;2023-02-11T01:26:45;98675.41;;;14.82;51.50
31239;BME280;17871;31.584;74.450;2023-02-11T01:29:14;98680.59;;;14.79;51.61
31239;BME280;17871;31.584;74.450;2023-02-11T01:31:44;98676.34;;;14.74;51.91
31239;BME280;17871;31.584;74.450;2023-02-11T01:34:14;98679.72;;;14.79;51.45
31239;BME280;17871;31.584;74.450;2023-02-11T01:36:44;98684.03;;;14.77;52.11
31239;BME280;17871;31.584;74.450;2023-02-11T01:39:13;98682.31;;;14.76;52.05
31239;BME280;17871;31.584;74.450;2023-02-11T01:41:45;98683.19;;;14.75;52.51
31239;BME280;17871;31.584;74.450;2023-02-11T01:44:27;98689.94;;;14.94;52.10
31239;BME280;17871;31.584;74.450;2023-02-11T01:46:59;98687.44;;;14.85;52.10
31239;BME280;17871;31.584;74.450;2023-02-11T01:49:35;98690.03;;;14.82;52.15
31239;BME280;17871;31.584;74.450;2023-02-11T01:52:13;98685.69;;;14.90;52.34
31239;BME280;17871;31.584;74.450;2023-02-11T01:54:47;98694.31;;;14.77;52.23
31239;BME280;17871;31.584;74.450;2023-02-11T01:57:38;98696.91;;;14.74;52.26
31239;BME280;17871;31.584;74.450;2023-02-11T02:00:32;98703.69;;;14.90;52.07
31239;BME280;17871;31.584;74.450;2023-02-11T02:03:09;98713.16;;;14.80;52.03
31239;BME280;17871;31.584;74.450;2023-02-11T02:08:42;98722.56;;;14.90;51.86
31239;BME280;17871;31.584;74.450;2023-02-11T02:11:12;98723.50;;;14.71;52.16
31239;BME280;17871;31.584;74.450;2023-02-11T02:13:41;98732.09;;;14.67;52.28
31239;BME280;17871;31.584;74.450;2023-02-11T02:16:14;98734.63;;;14.69;51.88
31239;BME280;17871;31.584;74.450;2023-02-11T02:24:55;98760.28;;;14.93;51.83
31239;BME280;17871;31.584;74.450;2023-02-11T02:30:21;98768.91;;;14.84;51.18
31239;BME280;17871;31.584;74.450;2023-02-11T02:33:05;98778.25;;;15.03;51.19
31239;BME280;17871;31.584;74.450;2023-02-11T02:39:08;98773.91;;;15.16;50.43
31239;BME280;17871;31.584;74.450;2023-02-11T02:41:40;98781.69;;;15.02;50.50
31239;BME280;17871;31.584;74.450;2023-02-11T02:44:10;98783.38;;;15.02;50.33
31239;BME280;17871;31.584;74.450;2023-02-11T02:46:40;98788.53;;;15.11;50.33
31239;BME280;17871;31.584;74.450;2023-02-11T02:49:13;98792.75;;;15.24;49.73
31239;BME280;17871;31.584;74.450;2023-02-11T02:52:05;98789.22;;;15.40;49.15
31239;BME280;17871;31.584;74.450;2023-02-11T02:55:03;98799.53;;;15.40;48.93
31239;BME280;17871;31.584;74.450;2023-02-11T03:00:57;98815.78;;;15.47;48.56
31239;BME280;17871;31.584;74.450;2023-02-11T03:09:07;98820.91;;;15.59;48.69
31239;BME280;17871;31.584;74.450;2023-02-11T03:11:40;98825.25;;;15.42;48.72
31239;BME280;17871;31.584;74.450;2023-02-11T03:14:12;98826.88;;;15.66;48.61
31239;BME280;17871;31.584;74.450;2023-02-11T03:16:45;98838.91;;;15.62;48.54
31239;BME280;17871;31.584;74.450;2023-02-11T03:19:40;98841.34;;;15.85;48.25
31239;BME280;17871;31.584;74.450;2023-02-11T03:22:18;98843.06;;;15.83;47.49
31239;BME280;17871;31.584;74.450;2023-02-11T03:24:48;98843.97;;;15.79;47.31
31239;BME280;17871;31.584;74.450;2023-02-11T03:30:15;98843.72;;;16.12;47.08
31239;BME280;17871;31.584;74.450;2023-02-11T03:32:52;98868.63;;;16.16;46.96
31239;BME280;17871;31.584;74.450;2023-02-11T03:35:31;98871.97;;;16.26;46.90
31239;BME280;17871;31.584;74.450;2023-02-11T03:38:15;98883.03;;;16.38;46.75
31239;BME280;17871;31.584;74.450;2023-02-11T03:40:46;98884.94;;;16.15;46.10
31239;BME280;17871;31.584;74.450;2023-02-11T03:43:49;98886.44;;;16.46;46.17
31239;BME280;17871;31.584;74.450;2023-02-11T03:46:26;98893.34;;;16.41;46.44
31239;BME280;17871;31.584;74.450;2023-02-11T03:49:01;98886.41;;;16.49;46.29
31239;BME280;17871;31.584;74.450;2023-02-11T03:51:33;98891.53;;;16.55;46.44
31239;BME280;17871;31.584;74.450;2023-02-11T03:54:09;98900.97;;;16.59;46.24
31239;BME280;17871;31.584;74.450;2023-02-11T03:56:50;98901.72;;;16.71;45.76
31239;BME280;17871;31.584;74.450;2023-02-11T03:59:20;98900.06;;;16.62;46.46
31239;BME280;17871;31.584;74.450;2023-02-11T04:01:51;98891.50;;;16.58;46.38
31239;BME280;17871;31.584;74.450;2023-02-11T04:04:20;98892.31;;;16.65;46.33
31239;BME280;17871;31.584;74.450;2023-02-11T04:06:49;98899.19;;;16.63;45.90
31239;BME280;17871;31.584;74.450;2023-02-11T04:09:18;98902.69;;;16.59;45.17
31239;BME280;17871;31.584;74.450;2023-02-11T04:11:48;98909.38;;;16.78;45.88
31239;BME280;17871;31.584;74.450;2023-02-11T04:14:17;98911.91;;;16.86;45.15
31239;BME280;17871;31.584;74.450;2023-02-11T04:16:47;98917.88;;;16.92;46.09
31239;BME280;17871;31.584;74.450;2023-02-11T04:19:15;98916.06;;;16.97;45.67
31239;BME280;17871;31.584;74.450;2023-02-11T04:21:45;98915.94;;;17.09;45.82
31239;BME280;17871;31.584;74.450;2023-02-11T04:24:15;98916.00;;;17.05;46.40
31239;BME280;17871;31.584;74.450;2023-02-11T04:26:44;98923.66;;;17.14;45.97
31239;BME280;17871;31.584;74.450;2023-02-11T04:29:14;98931.47;;;17.06;46.22
31239;BME280;17871;31.584;74.450;2023-02-11T04:31:43;98923.72;;;17.08;46.41
31239;BME280;17871;31.584;74.450;2023-02-11T04:34:12;98928.75;;;17.20;47.02
31239;BME280;17871;31.584;74.450;2023-02-11T04:36:42;98933.88;;;17.23;46.59
31239;BME280;17871;31.584;74.450;2023-02-11T04:39:12;98932.00;;;17.37;47.12
31239;BME280;17871;31.584;74.450;2023-02-11T04:41:41;98930.19;;;17.42;46.75
31239;BME280;17871;31.584;74.450;2023-02-11T04:44:11;98933.69;;;17.40;46.06
31239;BME280;17871;31.584;74.450;2023-02-11T04:46:40;98936.75;;;17.72;45.95
31239;BME280;17871;31.584;74.450;2023-02-11T04:49:12;98943.44;;;17.88;45.86
31239;BME280;17871;31.584;74.450;2023-02-11T04:51:43;98936.84;;;17.68;44.30
31239;BME280;17871;31.584;74.450;2023-02-11T04:54:16;98948.03;;;17.68;42.93
31239;BME280;17871;31.584;74.450;2023-02-11T04:56:47;98956.19;;;18.02;43.80
31239;BME280;17871;31.584;74.450;2023-02-11T04:59:18;98961.31;;;18.06;43.65
31239;BME280;17871;31.584;74.450;2023-02-11T05:01:47;98954.38;;;18.08;43.82
31239;BME280;17871;31.584;74.450;2023-02-11T05:04:17;98961.13;;;18.19;43.33
31239;BME280;17871;31.584;74.450;2023-02-11T05:06:47;98961.78;;;18.31;43.56
31239;BME280;17871;31.584;74.450;2023-02-11T05:09:16;98962.56;;;18.39;43.80
31239;BME280;17871;31.584;74.450;2023-02-11T05:11:47;98967.88;;;18.30;43.52
31239;BME280;17871;31.584;74.450;2023-02-11T05:14:16;98978.56;;;18.67;44.12
31239;BME280;17871;31.584;74.450;2023-02-11T05:16:46;98975.94;;;18.69;44.41
31239;BME280;17871;31.584;74.450;2023-02-11T05:19:15;98981.97;;;18.67;43.38
31239;BME280;17871;31.584;74.450;2023-02-11T05:21:45;98981.69;;;18.86;43.86
31239;BME280;17871;31.584;74.450;2023-02-11T05:24:32;98994.19;;;19.11;44.52
31239;BME280;17871;31.584;74.450;2023-02-11T05:27:03;98987.34;;;19.07;43.80
31239;BME280;17871;31.584;74.450;2023-02-11T05:29:32;98984.34;;;19.32;44.62
31239;BME280;17871;31.584;74.450;2023-02-11T05:32:02;98988.66;;;19.31;43.39
31239;BME280;17871;31.584;74.450;2023-02-11T05:34:31;98985.25;;;19.29;42.19
31239;BME280;17871;31.584;74.450;2023-02-11T05:37:02;98983.34;;;19.37;42.31
31239;BME280;17871;31.584;74.450;2023-02-11T05:39:33;98985.84;;;19.43;42.24
31239;BME280;17871;31.584;74.450;2023-02-11T05:42:02;98985.69;;;19.52;42.39
31239;BME280;17871;31.584;74.450;2023-02-11T05:44:33;98989.38;;;19.85;42.69
31239;BME280;17871;31.584;74.450;2023-02-11T05:47:02;98987.16;;;19.65;42.44
31239;BME280;17871;31.584;74.450;2023-02-11T05:49:32;98986.19;;;19.69;41.04
31239;BME280;17871;31.584;74.450;2023-02-11T05:52:02;98984.03;;;19.91;40.86
31239;BME280;17871;31.584;74.450;2023-02-11T05:54:32;98983.41;;;19.80;40.77
31239;BME280;17871;31.584;74.450;2023-02-11T05:57:01;98983.19;;;19.91;40.36
31239;BME280;17871;31.584;74.450;2023-02-11T05:59:31;98984.78;;;19.96;41.01
31239;BME280;17871;31.584;74.450;2023-02-11T06:02:00;98986.28;;;20.08;40.85
31239;BME280;17871;31.584;74.450;2023-02-11T06:04:30;98984.34;;;20.16;41.37
31239;BME280;17871;31.584;74.450;2023-02-11T06:07:00;98974.63;;;20.27;41.72
31239;BME280;17871;31.584;74.450;2023-02-11T06:09:30;98978.50;;;20.46;41.48
31239;BME280;17871;31.584;74.450;2023-02-11T06:11:59;98970.66;;;20.49;42.35
31239;BME280;17871;31.584;74.450;2023-02-11T06:14:31;98976.47;;;20.60;42.69
31239;BME280;17871;31.584;74.450;2023-02-11T06:17:01;98978.03;;;20.66;43.00
31239;BME280;17871;31.584;74.450;2023-02-11T06:19:31;98980.47;;;20.74;42.50
31239;BME280;17871;31.584;74.450;2023-02-11T06:22:01;98975.13;;;20.78;41.65
31239;BME280;17871;31.584;74.450;2023-02-11T06:24:30;98967.31;;;20.81;40.90
31239;BME280;17871;31.584;74.450;2023-02-11T06:27:20;98979.50;;;20.78;41.43
31239;BME280;17871;31.584;74.450;2023-02-11T06:29:50;98972.19;;;20.92;41.63
31239;BME280;17871;31.584;74.450;2023-02-11T06:32:22;98980.84;;;20.94;42.08
31239;BME280;17871;31.584;74.450;2023-02-11T06:35:10;98961.97;;;20.86;42.77
31239;BME280;17871;31.584;74.450;2023-02-11T06:37:40;98967.88;;;20.92;40.71
31239;BME280;17871;31.584;74.450;2023-02-11T06:40:10;98963.03;;;21.14;41.39
31239;BME280;17871;31.584;74.450;2023-02-11T06:42:40;98944.34;;;21.31;41.13
31239;BME280;17871;31.584;74.450;2023-02-11T06:45:10;98958.53;;;21.19;40.92
31239;BME280;17871;31.584;74.450;2023-02-11T06:47:40;98958.56;;;21.17;40.51
31239;BME280;17871;31.584;74.450;2023-02-11T06:50:11;98958.94;;;21.36;40.67
31239;BME280;17871;31.584;74.450;2023-02-11T06:52:41;98956.03;;;21.16;40.36
31239;BME280;17871;31.584;74.450;2023-02-11T06:55:11;98956.00;;;21.48;40.01
31239;BME280;17871;31.584;74.450;2023-02-11T06:57:40;98960.72;;;21.34;39.12
31239;BME280;17871;31.584;74.450;2023-02-11T07:00:09;98951.78;;;21.44;40.00
31239;BME280;17871;31.584;74.450;2023-02-11T07:02:39;98946.91;;;21.34;38.63
31239;BME280;17871;31.584;74.450;2023-02-11T07:05:08;98944.19;;;21.67;38.68
31239;BME280;17871;31.584;74.450;2023-02-11T07:07:38;98933.16;;;21.59;37.43
31239;BME280;17871;31.584;74.450;2023-02-11T07:10:07;98931.91;;;21.72;37.50
31239;BME280;17871;31.584;74.450;2023-02-11T07:12:37;98924.00;;;21.76;37.82
31239;BME280;17871;31.584;74.450;2023-02-11T07:15:06;98923.84;;;21.80;36.64
31239;BME280;17871;31.584;74.450;2023-02-11T07:17:35;98924.72;;;21.81;36.40
31239;BME280;17871;31.584;74.450;2023-02-11T07:20:05;98919.00;;;21.69;35.67
31239;BME280;17871;31.584;74.450;2023-02-11T07:22:34;98914.22;;;21.84;35.75
31239;BME280;17871;31.584;74.450;2023-02-11T07:25:05;98905.00;;;22.03;36.70
31239;BME280;17871;31.584;74.450;2023-02-11T07:27:34;98903.00;;;22.11;35.27
31239;BME280;17871;31.584;74.450;2023-02-11T07:30:03;98893.19;;;21.93;34.97
31239;BME280;17871;31.584;74.450;2023-02-11T07:32:34;98896.38;;;22.01;34.10
31239;BME280;17871;31.584;74.450;2023-02-11T07:35:03;98887.47;;;22.08;34.50
31239;BME280;17871;31.584;74.450;2023-02-11T07:37:34;98890.13;;;22.34;34.60
31239;BME280;17871;31.584;74.450;2023-02-11T07:40:03;98882.81;;;22.45;35.26
31239;BME280;17871;31.584;74.450;2023-02-11T07:42:36;98876.41;;;22.55;35.59
31239;BME280;17871;31.584;74.450;2023-02-11T07:45:07;98873.16;;;22.49;34.74
31239;BME280;17871;31.584;74.450;2023-02-11T07:47:36;98863.75;;;22.43;34.30
31239;BME280;17871;31.584;74.450;2023-02-11T07:50:09;98859.84;;;22.56;34.01
31239;BME280;17871;31.584;74.450;2023-02-11T07:52:38;98861.06;;;22.46;33.49
31239;BME280;17871;31.584;74.450;2023-02-11T07:55:07;98845.94;;;22.57;33.82
31239;BME280;17871;31.584;74.450;2023-02-11T07:57:39;98835.06;;;22.45;32.74
31239;BME280;17871;31.584;74.450;2023-02-11T08:00:09;98827.66;;;22.59;32.87
31239;BME280;17871;31.584;74.450;2023-02-11T08:02:38;98830.81;;;22.68;32.30
31239;BME280;17871;31.584;74.450;2023-02-11T08:05:07;98830.19;;;22.60;32.17
31239;BME280;17871;31.584;74.450;2023-02-11T08:07:37;98829.97;;;22.68;31.21
31239;BME280;17871;31.584;74.450;2023-02-11T08:10:07;98825.22;;;22.79;31.65
31239;BME280;17871;31.584;74.450;2023-02-11T08:12:37;98821.06;;;22.73;31.82
31239;BME280;17871;31.584;74.450;2023-02-11T08:15:07;98818.31;;;22.78;31.06
31239;BME280;17871;31.584;74.450;2023-02-11T08:17:36;98809.44;;;22.84;30.95
31239;BME280;17871;31.584;74.450;2023-02-11T08:20:06;98810.31;;;22.83;31.94
31239;BME280;17871;31.584;74.450;2023-02-11T08:22:35;98814.38;;;22.91;31.65
31239;BME280;17871;31.584;74.450;2023-02-11T08:25:05;98818.03;;;22.86;31.59
31239;BME280;17871;31.584;74.450;2023-02-11T08:27:34;98819.91;;;22.82;30.36
31239;BME280;17871;31.584;74.450;2023-02-11T08:30:04;98820.53;;;22.89;30.34
31239;BME280;17871;31.584;74.450;2023-02-11T08:32:33;98818.63;;;22.94;30.55
31239;BME280;17871;31.584;74.450;2023-02-11T08:35:03;98812.00;;;22.85;30.77
31239;BME280;17871;31.584;74.450;2023-02-11T08:37:33;98802.88;;;22.97;30.63
31239;BME280;17871;31.584;74.450;2023-02-11T08:40:02;98806.81;;;23.08;30.77
31239;BME280;17871;31.584;74.450;2023-02-11T08:42:32;98797.53;;;23.00;28.25
31239;BME280;17871;31.584;74.450;2023-02-11T08:45:01;98783.88;;;23.16;27.99
31239;BME280;17871;31.584;74.450;2023-02-11T08:47:30;98796.88;;;23.18;28.57
31239;BME280;17871;31.584;74.450;2023-02-11T08:49:59;98788.47;;;23.10;28.70
31239;BME280;17871;31.584;74.450;2023-02-11T08:52:28;98800.38;;;23.17;27.33
31239;BME280;17871;31.584;74.450;2023-02-11T08:54:57;98803.16;;;23.12;26.90
31239;BME280;17871;31.584;74.450;2023-02-11T08:57:27;98791.78;;;23.15;27.74
31239;BME280;17871;31.584;74.450;2023-02-11T08:59:57;98786.75;;;23.32;27.19
31239;BME280;17871;31.584;74.450;2023-02-11T09:02:26;98789.84;;;23.20;27.38
31239;BME280;17871;31.584;74.450;2023-02-11T09:04:56;98790.94;;;23.14;27.81
31239;BME280;17871;31.584;74.450;2023-02-11T09:07:27;98781.25;;;23.18;27.94
31239;BME280;17871;31.584;74.450;2023-02-11T09:09:56;98783.50;;;23.27;28.50
31239;BME280;17871;31.584;74.450;2023-02-11T09:12:25;98782.59;;;23.28;27.43
31239;BME280;17871;31.584;74.450;2023-02-11T09:14:55;98786.34;;;23.21;27.20
31239;BME280;17871;31.584;74.450;2023-02-11T09:17:27;98780.00;;;23.28;27.59
31239;BME280;17871;31.584;74.450;2023-02-11T09:19:57;98787.13;;;23.23;27.23
31239;BME280;17871;31.584;74.450;2023-02-11T09:22:26;98787.56;;;23.34;27.83
31239;BME280;17871;31.584;74.450;2023-02-11T09:24:56;98774.81;;;23.26;27.92
31239;BME280;17871;31.584;74.450;2023-02-11T09:27:26;98773.97;;;23.26;27.51
31239;BME280;17871;31.584;74.450;2023-02-11T09:29:55;98771.00;;;23.35;28.57
31239;BME280;17871;31.584;74.450;2023-02-11T09:32:24;98771.81;;;23.14;27.51
31239;BME280;17871;31.584;74.450;2023-02-11T09:37:22;98770.97;;;23.13;27.58
31239;BME280;17871;31.584;74.450;2023-02-11T09:39:51;98776.91;;;23.17;27.97
31239;BME280;17871;31.584;74.450;2023-02-11T09:43:06;98782.34;;;23.34;28.03
31239;BME280;17871;31.584;74.450;2023-02-11T09:45:23;98779.25;;;23.24;27.43
31239;BME280;17871;31.584;74.450;2023-02-11T09:48:09;98775.38;;;23.35;27.09
31239;BME280;17871;31.584;74.450;2023-02-11T09:53:50;98773.72;;;23.32;28.75
31239;BME280;17871;31.584;74.450;2023-02-11T09:56:28;98772.72;;;23.13;29.09
31239;BME280;17871;31.584;74.450;2023-02-11T09:58:57;98778.50;;;22.98;29.26
31239;BME280;17871;31.584;74.450;2023-02-11T10:07:31;98771.69;;;22.94;29.83
31239;BME280;17871;31.584;74.450;2023-02-11T10:10:23;98778.94;;;23.09;29.79
31239;BME280;17871;31.584;74.450;2023-02-11T10:17:02;98778.31;;;23.02;29.44
31239;BME280;17871;31.584;74.450;2023-02-11T10:24:56;98785.75;;;22.90;29.34
31239;BME280;17871;31.584;74.450;2023-02-11T10:27:33;98784.00;;;22.90;29.10
31239;BME280;17871;31.584;74.450;2023-02-11T10:30:15;98783.97;;;22.92;28.74
31239;BME280;17871;31.584;74.450;2023-02-11T10:32:55;98781.88;;;22.77;28.86
31239;BME280;17871;31.584;74.450;2023-02-11T10:35:27;98779.66;;;22.66;28.29
31239;BME280;17871;31.584;74.450;2023-02-11T10:37:57;98785.69;;;22.68;27.55
31239;BME280;17871;31.584;74.450;2023-02-11T10:40:29;98786.00;;;22.82;27.69
31239;BME280;17871;31.584;74.450;2023-02-11T10:43:03;98791.28;;;22.81;27.48
31239;BME280;17871;31.584;74.450;2023-02-11T10:45:36;98784.38;;;22.80;27.33
31239;BME280;17871;31.584;74.450;2023-02-11T10:54:09;98775.63;;;22.56;27.52
31239;BME280;17871;31.584;74.450;2023-02-11T10:56:58;98774.88;;;22.79;27.17
31239;BME280;17871;31.584;74.450;2023-02-11T11:04:42;98775.28;;;22.66;28.47
31239;BME280;17871;31.584;74.450;2023-02-11T11:07:22;98781.13;;;22.48;29.40
31239;BME280;17871;31.584;74.450;2023-02-11T11:10:06;98777.31;;;22.58;29.33
31239;BME280;17871;31.584;74.450;2023-02-11T11:12:37;98779.75;;;22.38;29.52
31239;BME280;17871;31.584;74.450;2023-02-11T11:17:46;98780.84;;;22.31;29.81
31239;BME280;17871;31.584;74.450;2023-02-11T11:20:26;98785.69;;;22.42;29.60
31239;BME280;17871;31.584;74.450;2023-02-11T11:23:18;98783.72;;;22.48;29.30
31239;BME280;17871;31.584;74.450;2023-02-11T11:26:11;98785.47;;;22.48;29.70
31239;BME280;17871;31.584;74.450;2023-02-11T11:31:35;98776.97;;;22.43;30.44
31239;BME280;17871;31.584;74.450;2023-02-11T11:34:29;98777.03;;;22.41;30.43
31239;BME280;17871;31.584;74.450;2023-02-11T11:37:09;98775.63;;;22.31;30.80
31239;BME280;17871;31.584;74.450;2023-02-11T11:39:39;98778.91;;;22.11;31.29
31239;BME280;17871;31.584;74.450;2023-02-11T11:42:41;98779.44;;;22.21;31.28
31239;BME280;17871;31.584;74.450;2023-02-11T11:48:08;98790.56;;;22.00;31.77
31239;BME280;17871;31.584;74.450;2023-02-11T11:56:18;98800.97;;;22.00;32.97
31239;BME280;17871;31.584;74.450;2023-02-11T11:58:49;98800.59;;;21.84;32.69
31239;BME280;17871;31.584;74.450;2023-02-11T12:16:24;98830.63;;;21.66;34.60
31239;BME280;17871;31.584;74.450;2023-02-11T12:19:06;98840.78;;;21.46;34.78
31239;BME280;17871;31.584;74.450;2023-02-11T12:22:02;98826.81;;;21.50;35.24
31239;BME280;17871;31.584;74.450;2023-02-11T12:30:33;98839.63;;;21.27;34.66
31239;BME280;17871;31.584;74.450;2023-02-11T12:33:13;98848.00;;;21.04;35.33
31239;BME280;17871;31.584;74.450;2023-02-11T12:45:21;98847.28;;;21.01;35.58
31239;BME280;17871;31.584;74.450;2023-02-11T12:50:53;98860.31;;;20.65;36.13
31239;BME280;17871;31.584;74.450;2023-02-11T12:59:02;98875.09;;;20.63;36.74
31239;BME280;17871;31.584;74.450;2023-02-11T13:01:39;98873.44;;;20.61;36.94
31239;BME280;17871;31.584;74.450;2023-02-11T13:04:37;98876.75;;;20.66;37.07
31239;BME280;17871;31.584;74.450;2023-02-11T13:07:16;98889.91;;;20.60;37.80
31239;BME280;17871;31.584;74.450;2023-02-11T13:09:58;98897.03;;;20.52;38.12
31239;BME280;17871;31.584;74.450;2023-02-11T13:12:31;98901.50;;;20.45;38.23
31239;BME280;17871;31.584;74.450;2023-02-11T13:15:19;98901.72;;;20.38;38.35
31239;BME280;17871;31.584;74.450;2023-02-11T13:18:26;98900.41;;;20.55;38.26
31239;BME280;17871;31.584;74.450;2023-02-11T13:24:18;98911.19;;;20.39;39.05
31239;BME280;17871;31.584;74.450;2023-02-11T13:35:47;98915.91;;;20.22;39.57
31239;BME280;17871;31.584;74.450;2023-02-11T13:38:17;98925.38;;;20.24;39.70
31239;BME280;17871;31.584;74.450;2023-02-11T13:41:15;98930.78;;;20.15;39.58
31239;BME280;17871;31.584;74.450;2023-02-11T13:43:57;98927.47;;;20.07;39.65
31239;BME280;17871;31.584;74.450;2023-02-11T13:46:29;98933.97;;;19.88;39.91
31239;BME280;17871;31.584;74.450;2023-02-11T13:49:22;98931.53;;;19.80;40.45
31239;BME280;17871;31.584;74.450;2023-02-11T13:51:53;98934.34;;;19.69;40.33
31239;BME280;17871;31.584;74.450;2023-02-11T13:54:36;98936.00;;;19.74;40.72
31239;BME280;17871;31.584;74.450;2023-02-11T13:59:52;98937.13;;;19.62;40.61
31239;BME280;17871;31.584;74.450;2023-02-11T14:02:31;98944.97;;;19.59;40.39
31239;BME280;17871;31.584;74.450;2023-02-11T14:05:25;98942.38;;;19.57;40.15
31239;BME280;17871;31.584;74.450;2023-02-11T14:08:19;98949.34;;;19.55;40.12
31239;BME280;17871;31.584;74.450;2023-02-11T14:16:22;98955.53;;;19.48;39.86
31239;BME280;17871;31.584;74.450;2023-02-11T14:19:07;98964.28;;;19.43;39.73
31239;BME280;17871;31.584;74.450;2023-02-11T14:21:38;98965.13;;;19.43;39.79
31239;BME280;17871;31.584;74.450;2023-02-11T14:26:46;98971.31;;;19.33;39.63
31239;BME280;17871;31.584;74.450;2023-02-11T14:29:25;98979.78;;;19.46;40.11
31239;BME280;17871;31.584;74.450;2023-02-11T14:32:50;98979.06;;;19.36;40.61
31239;BME280;17871;31.584;74.450;2023-02-11T14:35:03;98980.72;;;19.42;40.33
31239;BME280;17871;31.584;74.450;2023-02-11T14:43:44;98992.97;;;19.32;41.00
31239;BME280;17871;31.584;74.450;2023-02-11T14:46:17;98993.06;;;19.26;41.19
31239;BME280;17871;31.584;74.450;2023-02-11T14:48:49;98991.44;;;19.21;41.45
31239;BME280;17871;31.584;74.450;2023-02-11T14:51:28;98994.94;;;19.18;41.80
31239;BME280;17871;31.584;74.450;2023-02-11T14:54:11;99000.94;;;19.20;41.73
31239;BME280;17871;31.584;74.450;2023-02-11T14:56:45;98995.22;;;19.03;42.13
31239;BME280;17871;31.584;74.450;2023-02-11T14:59:19;99002.13;;;19.01;42.71
31239;BME280;17871;31.584;74.450;2023-02-11T15:01:51;98998.97;;;18.84;43.47
31239;BME280;17871;31.584;74.450;2023-02-11T15:04:29;99004.16;;;18.84;44.29
31239;BME280;17871;31.584;74.450;2023-02-11T15:07:05;99011.19;;;18.76;44.30
31239;BME280;17871;31.584;74.450;2023-02-11T15:09:51;99007.78;;;18.74;44.30
31239;BME280;17871;31.584;74.450;2023-02-11T15:12:24;99007.09;;;18.61;44.78
31239;BME280;17871;31.584;74.450;2023-02-11T15:14:54;99003.50;;;18.71;44.66
31239;BME280;17871;31.584;74.450;2023-02-11T15:17:27;98999.56;;;18.44;45.79
31239;BME280;17871;31.584;74.450;2023-02-11T15:19:58;99009.75;;;18.58;45.32
31239;BME280;17871;31.584;74.450;2023-02-11T15:22:33;99017.00;;;18.32;46.12
31239;BME280;17871;31.584;74.450;2023-02-11T15:25:13;99016.94;;;18.35;46.42
31239;BME280;17871;31.584;74.450;2023-02-11T15:27:52;99021.34;;;18.30;47.22
31239;BME280;17871;31.584;74.450;2023-02-11T15:30:31;99028.25;;;18.29;47.46
31239;BME280;17871;31.584;74.450;2023-02-11T15:33:04;99024.28;;;18.04;47.21
31239;BME280;17871;31.584;74.450;2023-02-11T15:35:37;99031.06;;;18.14;47.62
31239;BME280;17871;31.584;74.450;2023-02-11T15:38:10;99022.53;;;18.06;48.43
31239;BME280;17871;31.584;74.450;2023-02-11T15:40:51;99030.28;;;18.07;48.51
31239;BME280;17871;31.584;74.450;2023-02-11T15:43:21;99032.25;;;17.86;48.95
31239;BME280;17871;31.584;74.450;2023-02-11T15:48:25;99045.13;;;17.89;49.32